Grande Mariner — WCY6594 — position and weather

sailwx.info

Track history (hours):
 
Tides and Currents Weather Stations Pressure Air Temp Water Temp Dewpoint Dewpoint Depression Visibility Wind Speed Wind Dir Waves Ship Positions

Grande Mariner

Owner: AMERICAN CANADIAN CARIBBEAN LINE INC, WARREN, RI. More information available from US FCC via Universal Licensing System and Coast Guard Vessel Documentation Center.

Last reported at 2016-Aug-29 11:34 UTC. Time now 2016-Aug-31 08:00 UTC.
Position N 40°44' W 074°01'.

Length 56 m; draft 2 m.

Type: Passenger vessel. MMSI: 369024000.

Date/timePositionNaut miles runAvg speedWind from/ knotsBaromVisibWave heightAir tempDewpointWater temp
2016-Aug-29 11:34N 40°44' W 074°01'1 0.1
2016-Aug-29 02:28N 40°45' W 074°01'0 0.0
2016-Aug-28 19:25N 40°45' W 074°01'0 0.0
2016-Aug-28 11:22N 40°45' W 074°01'0 0.0
2016-Aug-28 10:28N 40°45' W 074°01'0 0.0
2016-Aug-28 09:29N 40°45' W 074°01'0 0.0
2016-Aug-28 06:10N 40°45' W 074°01'0 0.0
2016-Aug-28 05:22N 40°45' W 074°01'0 0.0
2016-Aug-28 01:28N 40°45' W 074°01'0 0.0
2016-Aug-27 14:32N 40°45' W 074°01'3 3.5
2016-Aug-27 13:33N 40°42' W 074°02'4 3.9
2016-Aug-27 12:34N 40°44' W 073°58'63 9.9
2016-Aug-27 06:08N 41°08' W 072°40'16 9.5
2016-Aug-27 04:30N 41°12' W 072°20'56 8.0
2016-Aug-26 21:31N 41°42' W 071°18'1 0.0
2016-Aug-25 18:27N 41°43' W 071°17'4 4.4
2016-Aug-25 17:31N 41°39' W 071°19'2 0.3
2016-Aug-25 12:06N 41°40' W 071°17'6 9.6
2016-Aug-25 11:31N 41°34' W 071°19'19 9.5
2016-Aug-25 09:33N 41°19' W 071°33'31 9.3
2016-Aug-25 06:10N 41°13' W 072°15'15 9.2
2016-Aug-25 04:33N 41°09' W 072°34'6610.4
2016-Aug-24 22:13N 40°47' W 073°55'4 6.1
2016-Aug-24 21:34N 40°43' W 073°58'2 2.4
2016-Aug-24 20:33N 40°43' W 074°01'  
Track history (hours):
 
Tides and Currents Weather Stations Pressure Air Temp Water Temp Dewpoint Dewpoint Depression Visibility Wind Speed Wind Dir Waves Ship Positions

Grande Mariner

Owner: AMERICAN CANADIAN CARIBBEAN LINE INC, WARREN, RI. More information available from US FCC via Universal Licensing System and Coast Guard Vessel Documentation Center.

Last reported at 2016-Aug-29 11:34 UTC. Time now 2016-Aug-31 08:00 UTC.
Position N 40°44' W 074°01'.

Length 56 m; draft 2 m.

Type: Passenger vessel. MMSI: 369024000.

Date/timePositionNaut miles runAvg speedWind from/ knotsBaromVisibWave heightAir tempDewpointWater temp
2016-Aug-29 11:34N 40°44' W 074°01'1 0.1
2016-Aug-29 02:28N 40°45' W 074°01'0 0.0
2016-Aug-28 19:25N 40°45' W 074°01'0 0.0
2016-Aug-28 11:22N 40°45' W 074°01'0 0.0
2016-Aug-28 10:28N 40°45' W 074°01'0 0.0
2016-Aug-28 09:29N 40°45' W 074°01'0 0.0
2016-Aug-28 06:10N 40°45' W 074°01'0 0.0
2016-Aug-28 05:22N 40°45' W 074°01'0 0.0
2016-Aug-28 01:28N 40°45' W 074°01'0 0.0
2016-Aug-27 14:32N 40°45' W 074°01'3 3.5
2016-Aug-27 13:33N 40°42' W 074°02'4 3.9
2016-Aug-27 12:34N 40°44' W 073°58'63 9.9
2016-Aug-27 06:08N 41°08' W 072°40'16 9.5
2016-Aug-27 04:30N 41°12' W 072°20'56 8.0
2016-Aug-26 21:31N 41°42' W 071°18'1 0.0
2016-Aug-25 18:27N 41°43' W 071°17'4 4.4
2016-Aug-25 17:31N 41°39' W 071°19'2 0.3
2016-Aug-25 12:06N 41°40' W 071°17'6 9.6
2016-Aug-25 11:31N 41°34' W 071°19'19 9.5
2016-Aug-25 09:33N 41°19' W 071°33'31 9.3
2016-Aug-25 06:10N 41°13' W 072°15'15 9.2
2016-Aug-25 04:33N 41°09' W 072°34'6610.4
2016-Aug-24 22:13N 40°47' W 073°55'4 6.1
2016-Aug-24 21:34N 40°43' W 073°58'2 2.4
2016-Aug-24 20:33N 40°43' W 074°01'  

Dump ship's entire track history